Time;durP1;ratioP1;P1;durP2;ratioP2;P2;SDS_P1;SDS_P2;PMS_P1;PMS_P2;Temp;Humidity;BMP_temperature;BMP_pressure;BME280_temperature;BME280_humidity;BME280_pressure;Samples;Min_cycle;Max_cycle;Signal;HPM_P1;HPM_P2
2022/01/01 00:01:18;;;;;;;56.72;21.48;;;11.10;99.90;;;;;;4976241;28;20124;-68
2022/01/01 00:03:44;;;;;;;56.00;20.45;;;;;;;;;;4959342;28;20054;-68
2022/01/01 00:06:09;;;;;;;52.92;18.15;;;11.20;99.90;;;;;;4976339;28;20051;-67
2022/01/01 00:08:35;;;;;;;51.13;17.85;;;;;;;;;;4976177;28;20035;-67
2022/01/01 00:11:01;;;;;;;47.03;17.08;;;;;;;;;;4989284;28;20074;-67
2022/01/01 00:13:27;;;;;;;51.88;17.88;;;;;;;;;;4983354;28;20043;-68
2022/01/01 00:15:53;;;;;;;47.90;16.45;;;11.00;99.90;;;;;;4978246;28;20062;-68
2022/01/01 00:18:19;;;;;;;44.92;17.80;;;;;;;;;;4978590;28;20033;-68
2022/01/01 00:20:44;;;;;;;38.30;14.45;;;10.90;99.90;;;;;;4994870;28;20039;-69
2022/01/01 00:23:10;;;;;;;46.55;14.93;;;10.80;99.90;;;;;;4978220;28;20392;-68
2022/01/01 00:25:35;;;;;;;49.75;16.05;;;10.80;99.90;;;;;;4979883;28;20090;-69
2022/01/01 00:28:01;;;;;;;52.22;17.27;;;10.80;99.90;;;;;;4977859;28;20078;-68
2022/01/01 00:30:26;;;;;;;45.33;17.02;;;11.00;99.90;;;;;;4978392;28;20077;-68
2022/01/01 00:32:52;;;;;;;48.17;19.63;;;;;;;;;;4979410;28;20031;-69
2022/01/01 00:35:18;;;;;;;54.72;20.60;;;10.70;99.90;;;;;;4979226;28;20492;-68
2022/01/01 00:37:43;;;;;;;55.33;23.05;;;10.70;99.90;;;;;;4960331;28;20039;-69
2022/01/01 00:40:09;;;;;;;56.90;23.20;;;10.50;99.90;;;;;;4958420;29;20035;-68
2022/01/01 00:42:35;;;;;;;64.13;25.77;;;;;;;;;;4961269;28;20047;-69
2022/01/01 00:45:01;;;;;;;70.72;28.80;;;10.70;99.90;;;;;;4958259;28;20050;-68
2022/01/01 00:47:27;;;;;;;70.63;31.13;;;10.40;99.90;;;;;;4957572;28;20106;-68
2022/01/01 00:49:52;;;;;;;67.38;33.08;;;10.50;99.90;;;;;;4958132;28;20051;-68
2022/01/01 00:52:18;;;;;;;72.40;33.70;;;10.50;99.90;;;;;;4974360;28;20081;-68
2022/01/01 00:54:43;;;;;;;84.25;38.70;;;10.60;99.90;;;;;;4976819;28;20382;-68
2022/01/01 00:57:09;;;;;;;88.65;42.17;;;10.50;99.90;;;;;;4976065;28;20051;-68
2022/01/01 00:59:34;;;;;;;89.18;44.47;;;10.70;99.90;;;;;;4977261;28;20042;-68
2022/01/01 01:02:00;;;;;;;88.40;45.03;;;10.70;99.90;;;;;;4977515;28;20070;-67
2022/01/01 01:04:26;;;;;;;105.15;48.42;;;10.50;99.90;;;;;;4976790;28;20441;-68
2022/01/01 01:06:52;;;;;;;98.18;47.97;;;10.60;99.90;;;;;;4975836;28;20089;-68
2022/01/01 01:09:18;;;;;;;102.22;47.63;;;;;;;;;;4960469;28;20405;-68
2022/01/01 01:11:47;;;;;;;112.65;45.72;;;10.60;99.90;;;;;;4959581;28;20489;-68
2022/01/01 01:14:20;;;;;;;92.72;44.45;;;10.30;99.90;;;;;;4976989;28;20082;-68
2022/01/01 01:16:47;;;;;;;108.97;46.80;;;10.50;99.90;;;;;;4976703;28;20051;-68
2022/01/01 01:19:14;;;;;;;98.50;44.88;;;10.40;99.90;;;;;;4977935;28;20117;-68
2022/01/01 01:21:43;;;;;;;94.20;42.42;;;10.50;99.90;;;;;;4975885;28;20039;-68
2022/01/01 01:24:09;;;;;;;81.28;40.75;;;;;;;;;;4976004;28;20050;-68
2022/01/01 01:26:35;;;;;;;88.65;40.67;;;10.50;99.90;;;;;;4975600;28;20051;-68
2022/01/01 01:29:03;;;;;;;85.32;38.97;;;10.50;99.90;;;;;;4976248;28;20039;-68
2022/01/01 01:31:29;;;;;;;90.32;40.85;;;10.40;99.90;;;;;;4958456;28;20469;-65
2022/01/01 01:33:55;;;;;;;86.25;38.47;;;10.40;99.90;;;;;;4956119;28;20043;-65
2022/01/01 01:36:21;;;;;;;84.32;37.55;;;10.40;99.90;;;;;;4954889;29;20493;-65
2022/01/01 01:38:46;;;;;;;83.68;37.35;;;10.30;99.90;;;;;;4965965;28;20490;-65
2022/01/01 01:41:12;;;;;;;82.85;36.00;;;10.30;99.90;;;;;;4960765;28;20540;-65
2022/01/01 01:43:38;;;;;;;72.88;33.95;;;10.40;99.90;;;;;;4988572;28;20481;-65
2022/01/01 01:46:05;;;;;;;73.13;32.70;;;10.30;99.90;;;;;;4954650;29;20110;-65
2022/01/01 01:48:33;;;;;;;84.45;33.92;;;10.40;99.90;;;;;;4956035;28;20051;-65
2022/01/01 01:50:59;;;;;;;72.43;32.60;;;10.30;99.90;;;;;;4961167;28;20484;-65
2022/01/01 01:53:26;;;;;;;71.40;35.25;;;10.30;99.90;;;;;;4975128;28;20038;-65
2022/01/01 01:55:52;;;;;;;71.82;32.58;;;10.20;99.90;;;;;;4974869;28;20114;-65
2022/01/01 01:58:17;;;;;;;75.97;33.30;;;10.30;99.90;;;;;;4974832;28;20109;-65
2022/01/01 02:03:27;;;;;;;85.90;37.22;;;10.30;99.90;;;;;;4973616;28;20059;-65
2022/01/01 02:05:53;;;;;;;86.65;38.17;;;10.30;99.90;;;;;;4974819;28;20500;-65
2022/01/01 02:08:19;;;;;;;82.80;38.83;;;10.30;99.90;;;;;;4973375;28;20054;-65
2022/01/01 02:10:48;;;;;;;84.80;40.45;;;10.30;99.90;;;;;;4973545;28;20046;-65
2022/01/01 02:13:26;;;;;;;97.63;40.60;;;10.40;99.90;;;;;;4973832;28;20034;-65
2022/01/01 02:18:18;;;;;;;89.57;41.60;;;10.40;99.90;;;;;;4974283;28;20092;-64
2022/01/01 02:20:49;;;;;;;96.72;43.95;;;10.50;99.90;;;;;;4974505;28;20493;-65
2022/01/01 02:23:21;;;;;;;101.63;46.55;;;10.50;99.90;;;;;;4973341;28;20058;-65
2022/01/01 02:25:49;;;;;;;97.55;43.35;;;10.60;99.90;;;;;;4974591;28;20047;-65
2022/01/01 02:28:15;;;;;;;99.70;47.92;;;10.60;99.90;;;;;;4973151;28;20117;-65
2022/01/01 02:30:41;;;;;;;110.32;46.72;;;;;;;;;;4974498;28;20138;-65
2022/01/01 02:33:07;;;;;;;102.93;47.58;;;10.70;99.90;;;;;;4970506;28;20086;-65
2022/01/01 02:35:32;;;;;;;101.63;48.47;;;10.60;99.90;;;;;;4955117;28;20043;-65
2022/01/01 02:37:58;;;;;;;101.75;50.88;;;10.80;99.90;;;;;;4954957;28;20437;-65
2022/01/01 02:40:24;;;;;;;99.78;48.75;;;10.80;99.90;;;;;;4954102;29;20078;-65
2022/01/01 02:42:51;;;;;;;105.60;52.03;;;10.90;99.90;;;;;;4953681;29;20051;-65
2022/01/01 02:45:17;;;;;;;105.70;50.05;;;10.70;99.90;;;;;;4955100;28;20043;-65
2022/01/01 02:47:43;;;;;;;100.80;50.67;;;10.80;99.90;;;;;;4954851;28;20383;-65
2022/01/01 02:50:09;;;;;;;102.03;50.30;;;10.80;99.90;;;;;;4954893;28;20047;-65
2022/01/01 02:52:35;;;;;;;107.03;54.28;;;10.60;99.90;;;;;;4973158;28;20038;-65
2022/01/01 02:55:01;;;;;;;99.13;54.17;;;10.70;99.90;;;;;;4972983;28;20142;-65
2022/01/01 02:57:26;;;;;;;109.60;54.38;;;10.70;99.90;;;;;;4974210;28;20047;-65
2022/01/01 02:59:52;;;;;;;108.38;54.33;;;10.70;99.90;;;;;;4973175;28;20070;-65
2022/01/01 03:02:18;;;;;;;101.18;52.58;;;10.70;99.90;;;;;;4972779;28;20121;-65
2022/01/01 03:04:43;;;;;;;108.25;53.50;;;10.70;99.90;;;;;;4974074;28;20085;-66
2022/01/01 03:07:09;;;;;;;106.57;52.80;;;10.80;99.90;;;;;;4973914;28;20461;-65
2022/01/01 03:09:34;;;;;;;103.68;52.33;;;10.80;99.90;;;;;;4974249;28;20382;-65
2022/01/01 03:12:04;;;;;;;95.25;53.08;;;10.70;99.90;;;;;;4972807;28;20054;-65
2022/01/01 03:14:30;;;;;;;104.60;52.10;;;10.70;99.90;;;;;;4974065;28;20448;-65
2022/01/01 03:16:56;;;;;;;98.85;48.55;;;10.70;99.90;;;;;;4972681;28;20046;-65
2022/01/01 03:19:22;;;;;;;105.63;52.85;;;10.60;99.90;;;;;;4972657;28;20077;-65
2022/01/01 03:21:47;;;;;;;109.32;52.78;;;10.70;99.90;;;;;;4973003;28;20046;-65
2022/01/01 03:24:13;;;;;;;103.22;52.90;;;10.70;99.90;;;;;;4973974;28;20078;-65
2022/01/01 03:26:40;;;;;;;106.97;52.88;;;10.60;99.90;;;;;;4969527;28;20130;-65
2022/01/01 03:29:06;;;;;;;108.93;54.20;;;10.60;99.90;;;;;;4972624;28;20101;-65
2022/01/01 03:31:32;;;;;;;120.32;58.22;;;10.70;99.90;;;;;;4968434;28;20047;-65
2022/01/01 03:33:58;;;;;;;113.18;55.63;;;10.60;99.90;;;;;;4958194;29;20382;-65
2022/01/01 03:36:25;;;;;;;115.47;58.10;;;10.60;99.90;;;;;;4958057;29;20043;-65
2022/01/01 03:38:50;;;;;;;119.30;59.95;;;10.70;99.90;;;;;;4958408;28;20118;-65
2022/01/01 03:41:16;;;;;;;114.50;58.30;;;10.50;99.90;;;;;;4962710;28;20086;-65
2022/01/01 03:43:42;;;;;;;116.75;62.47;;;10.90;99.90;;;;;;4977462;28;20058;-65
2022/01/01 03:46:07;;;;;;;116.80;60.03;;;10.60;99.90;;;;;;4977120;28;20042;-65
2022/01/01 03:48:33;;;;;;;117.30;61.80;;;10.60;99.90;;;;;;4978127;28;20084;-65
2022/01/01 03:50:58;;;;;;;114.50;61.05;;;10.60;99.90;;;;;;4996570;28;20042;-65
2022/01/01 03:53:25;;;;;;;123.93;63.42;;;10.60;99.90;;;;;;4996814;28;20074;-65
2022/01/01 03:55:51;;;;;;;122.13;61.78;;;10.80;99.90;;;;;;4995364;28;20085;-65
2022/01/01 03:58:17;;;;;;;125.00;63.33;;;10.70;99.90;;;;;;4996612;28;20113;-65
2022/01/01 04:00:42;;;;;;;119.13;61.40;;;10.60;99.90;;;;;;4995269;28;20117;-65
2022/01/01 04:03:10;;;;;;;121.50;63.25;;;10.80;99.90;;;;;;4996499;28;20040;-65
2022/01/01 04:05:37;;;;;;;119.32;62.20;;;10.80;99.90;;;;;;4979026;28;20057;-65
2022/01/01 04:08:03;;;;;;;122.63;62.67;;;10.80;99.90;;;;;;4979214;28;20365;-65
2022/01/01 04:10:31;;;;;;;120.50;62.40;;;10.80;99.90;;;;;;4996547;28;20117;-65
2022/01/01 04:13:00;;;;;;;116.40;61.42;;;10.80;99.90;;;;;;4995420;28;20034;-65
2022/01/01 04:15:29;;;;;;;119.93;61.47;;;10.80;99.90;;;;;;4994916;28;20493;-65
2022/01/01 04:18:00;;;;;;;117.13;59.72;;;10.80;99.90;;;;;;4996197;28;20370;-68
2022/01/01 04:20:27;;;;;;;122.03;60.15;;;10.70;99.90;;;;;;4996453;28;20400;-68
2022/01/01 04:22:54;;;;;;;118.43;60.53;;;10.70;99.90;;;;;;4996401;28;20038;-66
2022/01/01 04:25:20;;;;;;;116.57;59.15;;;10.80;99.90;;;;;;4994987;28;20076;-65
2022/01/01 04:27:47;;;;;;;108.18;56.08;;;10.90;99.90;;;;;;4994725;28;20117;-65
2022/01/01 04:30:13;;;;;;;113.45;56.35;;;10.70;99.90;;;;;;4996142;28;20042;-65
2022/01/01 04:32:39;;;;;;;117.20;55.50;;;11.00;99.90;;;;;;4995857;28;20409;-66
2022/01/01 04:35:05;;;;;;;118.93;56.40;;;10.90;99.90;;;;;;4996073;28;20053;-66
2022/01/01 04:37:31;;;;;;;114.88;53.38;;;11.10;99.90;;;;;;4996060;28;20038;-65
2022/01/01 04:39:59;;;;;;;115.95;53.22;;;11.00;99.90;;;;;;4994722;28;20392;-65
2022/01/01 04:42:25;;;;;;;114.65;54.90;;;10.90;99.90;;;;;;4995628;28;20050;-65
2022/01/01 04:44:51;;;;;;;110.57;50.75;;;11.10;99.90;;;;;;4994593;28;20133;-65
2022/01/01 04:47:17;;;;;;;98.47;48.92;;;11.00;99.90;;;;;;4995609;28;20117;-65
2022/01/01 04:49:42;;;;;;;103.20;45.47;;;11.10;99.90;;;;;;4995923;28;20452;-65
2022/01/01 04:52:08;;;;;;;100.20;46.90;;;11.10;99.90;;;;;;4994724;28;20042;-65
2022/01/01 04:54:38;;;;;;;101.20;46.25;;;;;;;;;;4995249;28;20049;-66
2022/01/01 04:57:04;;;;;;;101.05;41.60;;;11.20;99.90;;;;;;4995422;28;20065;-65
2022/01/01 04:59:30;;;;;;;101.90;43.83;;;11.20;99.90;;;;;;4995475;28;20034;-65
2022/01/01 05:01:55;;;;;;;101.80;41.50;;;11.10;99.90;;;;;;4994026;28;20043;-66
2022/01/01 05:04:21;;;;;;;98.22;39.88;;;10.90;99.90;;;;;;4995620;28;20085;-66
2022/01/01 05:06:49;;;;;;;90.72;37.08;;;11.20;99.90;;;;;;4994008;28;20042;-65
2022/01/01 05:09:18;;;;;;;95.80;36.83;;;11.10;99.90;;;;;;4995464;28;20121;-66
2022/01/01 05:11:44;;;;;;;82.80;34.58;;;11.10;99.90;;;;;;4988109;28;20129;-66
2022/01/01 05:14:11;;;;;;;89.07;32.85;;;11.10;99.90;;;;;;4958550;28;20089;-66
2022/01/01 05:16:36;;;;;;;77.72;29.52;;;11.10;99.90;;;;;;4975404;28;20042;-65
2022/01/01 05:19:02;;;;;;;75.03;31.52;;;11.20;99.90;;;;;;4975898;28;20057;-66
2022/01/01 05:21:31;;;;;;;81.28;27.98;;;10.90;99.90;;;;;;4975767;28;20057;-65
2022/01/01 05:23:57;;;;;;;61.97;24.80;;;11.10;99.90;;;;;;4958297;28;20086;-65
2022/01/01 05:26:23;;;;;;;66.47;26.00;;;11.20;99.90;;;;;;4975686;28;20051;-65
2022/01/01 05:28:49;;;;;;;71.90;26.85;;;11.10;99.90;;;;;;4975408;28;20457;-66
2022/01/01 05:31:16;;;;;;;73.60;24.77;;;11.20;99.90;;;;;;4957967;28;20110;-66
2022/01/01 05:33:42;;;;;;;74.25;26.55;;;11.10;99.90;;;;;;4975549;28;20105;-66
2022/01/01 05:36:07;;;;;;;68.90;25.67;;;11.20;99.90;;;;;;4958365;28;20050;-65
2022/01/01 05:38:33;;;;;;;72.40;25.50;;;11.00;99.90;;;;;;4975710;28;20035;-66
2022/01/01 05:40:59;;;;;;;62.50;23.60;;;;;;;;;;4975125;28;20047;-68
2022/01/01 05:43:25;;;;;;;59.90;25.90;;;;;;;;;;4976820;28;20097;-69
2022/01/01 05:45:51;;;;;;;63.65;23.35;;;11.10;99.90;;;;;;4961221;28;20046;-67
2022/01/01 05:48:16;;;;;;;64.93;24.95;;;11.30;99.90;;;;;;4989592;28;20038;-67
2022/01/01 05:50:42;;;;;;;70.47;25.75;;;11.40;99.90;;;;;;4988953;28;20050;-68
2022/01/01 05:53:08;;;;;;;65.15;23.40;;;;;;;;;;4987537;28;20037;-67
2022/01/01 05:55:34;;;;;;;60.33;23.65;;;11.30;99.90;;;;;;4986665;28;20404;-64
2022/01/01 05:58:00;;;;;;;61.10;25.05;;;11.10;99.90;;;;;;4961855;28;20062;-64
2022/01/01 06:00:26;;;;;;;57.33;22.13;;;11.10;99.90;;;;;;4985611;28;20117;-70
2022/01/01 06:02:51;;;;;;;67.43;23.63;;;11.30;99.90;;;;;;4990826;28;20034;-64
2022/01/01 06:05:17;;;;;;;67.80;25.05;;;11.20;99.90;;;;;;4961441;28;20056;-64
2022/01/01 06:07:43;;;;;;;66.65;23.10;;;11.20;99.90;;;;;;4972763;28;20046;-64
2022/01/01 06:10:09;;;;;;;60.92;22.63;;;11.20;99.90;;;;;;4975979;28;20038;-64
2022/01/01 06:12:38;;;;;;;61.05;22.65;;;11.00;99.90;;;;;;4984644;28;20047;-64
2022/01/01 06:15:04;;;;;;;76.85;21.35;;;11.40;99.90;;;;;;4976869;28;20038;-64
2022/01/01 06:17:29;;;;;;;51.05;21.55;;;11.20;99.90;;;;;;4941814;28;20054;-64
2022/01/01 06:19:55;;;;;;;49.42;20.88;;;11.30;99.90;;;;;;4957739;28;20045;-64
2022/01/01 06:22:20;;;;;;;64.63;21.23;;;11.20;99.90;;;;;;4975642;28;20031;-66
2022/01/01 06:24:46;;;;;;;59.72;21.38;;;11.30;99.90;;;;;;4958455;28;20050;-66
2022/01/01 06:27:13;;;;;;;54.95;19.23;;;11.30;99.90;;;;;;4957875;28;20417;-67
2022/01/01 06:29:39;;;;;;;52.97;20.15;;;11.30;99.90;;;;;;4958482;28;20081;-66
2022/01/01 06:32:05;;;;;;;55.70;20.55;;;11.40;99.90;;;;;;4975936;28;20046;-67
2022/01/01 06:34:30;;;;;;;50.67;20.02;;;;;;;;;;4998001;28;20052;-67
2022/01/01 06:36:56;;;;;;;65.85;23.90;;;;;;;;;;4999772;28;20046;-67
2022/01/01 06:39:22;;;;;;;53.10;19.92;;;11.30;99.90;;;;;;4993240;28;20056;-67
2022/01/01 06:41:48;;;;;;;60.92;21.40;;;11.50;99.90;;;;;;4980352;28;20428;-67
2022/01/01 06:44:14;;;;;;;61.67;21.05;;;;;;;;;;4998205;28;20105;-67
2022/01/01 06:46:40;;;;;;;50.70;20.00;;;11.40;99.90;;;;;;4978280;28;20065;-65
2022/01/01 06:49:06;;;;;;;59.72;23.55;;;11.50;99.90;;;;;;4977552;28;20043;-66
2022/01/01 06:51:36;;;;;;;60.35;21.75;;;11.40;99.90;;;;;;4996134;28;20038;-67
2022/01/01 06:54:03;;;;;;;62.25;20.60;;;11.60;99.90;;;;;;4979965;28;20058;-66
2022/01/01 06:56:28;;;;;;;54.85;20.73;;;11.40;99.90;;;;;;4961145;28;20038;-64
2022/01/01 06:58:54;;;;;;;52.83;20.70;;;11.50;99.90;;;;;;4977706;28;20100;-65
2022/01/01 07:01:20;;;;;;;48.55;21.52;;;;;;;;;;4991368;28;20503;-66
2022/01/01 07:03:45;;;;;;;56.33;21.23;;;11.60;99.90;;;;;;4987802;28;20049;-67
2022/01/01 07:06:11;;;;;;;53.25;21.55;;;11.60;99.90;;;;;;4966035;28;20050;-67
2022/01/01 07:08:37;;;;;;;54.00;21.75;;;;;;;;;;4983084;28;20138;-67
2022/01/01 07:11:03;;;;;;;56.17;20.40;;;;;;;;;;4984576;28;20117;-66
2022/01/01 07:13:29;;;;;;;50.35;21.42;;;;;;;;;;4969794;28;20089;-67
2022/01/01 07:15:55;;;;;;;58.55;20.92;;;11.60;99.90;;;;;;4975143;28;20448;-66
2022/01/01 07:18:20;;;;;;;55.65;21.20;;;;;;;;;;4964106;28;20050;-65
2022/01/01 07:20:46;;;;;;;53.55;21.45;;;11.80;99.90;;;;;;4998937;28;20077;-66
2022/01/01 07:23:12;;;;;;;55.72;22.83;;;11.70;99.90;;;;;;4979035;28;20491;-65
2022/01/01 07:25:37;;;;;;;49.72;21.58;;;11.80;99.90;;;;;;4994815;28;20046;-66
2022/01/01 07:28:03;;;;;;;50.90;20.67;;;11.90;99.90;;;;;;4977394;28;20046;-65
2022/01/01 07:30:29;;;;;;;50.30;22.13;;;11.90;99.90;;;;;;4994799;28;20077;-67
2022/01/01 07:32:55;;;;;;;58.28;22.40;;;;;;;;;;4977547;28;20408;-67
2022/01/01 07:35:21;;;;;;;52.15;22.08;;;12.00;99.90;;;;;;4994854;28;20267;-67
2022/01/01 07:37:49;;;;;;;53.30;23.30;;;11.90;99.90;;;;;;4974393;28;20494;-66
2022/01/01 07:40:16;;;;;;;54.97;24.48;;;12.10;99.90;;;;;;4974519;28;20452;-66
2022/01/01 07:42:43;;;;;;;51.05;22.17;;;12.00;99.90;;;;;;4974312;28;20061;-66
2022/01/01 07:45:10;;;;;;;51.22;22.40;;;12.10;99.90;;;;;;4990461;28;20068;-66
2022/01/01 07:47:36;;;;;;;50.90;23.10;;;;;;;;;;4992478;28;20130;-67
2022/01/01 07:50:02;;;;;;;54.78;22.38;;;;;;;;;;4994695;28;20084;-66
2022/01/01 07:52:27;;;;;;;52.17;21.23;;;12.00;99.90;;;;;;4997507;28;20038;-67
2022/01/01 07:54:53;;;;;;;53.15;23.77;;;11.90;99.90;;;;;;4991431;28;20046;-66
2022/01/01 07:57:18;;;;;;;52.55;23.05;;;12.00;99.90;;;;;;4984947;28;20431;-66
2022/01/01 07:59:44;;;;;;;55.25;23.90;;;;;;;;;;4987045;28;20051;-66
2022/01/01 08:02:10;;;;;;;51.83;24.40;;;12.00;99.90;;;;;;4976200;28;20400;-65
2022/01/01 08:04:35;;;;;;;58.00;23.63;;;12.00;99.90;;;;;;4994440;28;20050;-65
2022/01/01 08:07:01;;;;;;;51.72;23.33;;;12.00;99.90;;;;;;4994208;28;20034;-66
2022/01/01 08:09:28;;;;;;;53.15;24.63;;;12.00;99.90;;;;;;4994349;28;20429;-65
2022/01/01 08:11:54;;;;;;;53.25;24.35;;;;;;;;;;4993489;28;20046;-65
2022/01/01 08:14:20;;;;;;;64.07;24.52;;;12.00;99.90;;;;;;4980043;28;20443;-66
2022/01/01 08:17:05;;;;;;;59.90;26.15;;;12.10;99.90;;;;;;4990347;28;20047;-67
2022/01/01 08:19:31;;;;;;;62.22;26.42;;;12.00;99.90;;;;;;4985259;28;20161;-67
2022/01/01 08:21:57;;;;;;;59.25;25.92;;;12.10;99.90;;;;;;4994038;28;20043;-68
2022/01/01 08:24:23;;;;;;;64.60;26.40;;;12.00;99.90;;;;;;4993285;28;20053;-68
2022/01/01 08:26:50;;;;;;;60.00;25.10;;;12.10;99.90;;;;;;4976559;28;20073;-67
2022/01/01 08:29:16;;;;;;;60.55;25.52;;;12.20;99.90;;;;;;4987917;28;20174;-66
2022/01/01 08:31:42;;;;;;;59.13;24.08;;;12.10;99.90;;;;;;4982594;28;20457;-66
2022/01/01 08:34:07;;;;;;;56.75;24.92;;;12.10;99.90;;;;;;4997533;28;20144;-66
2022/01/01 08:36:34;;;;;;;56.60;26.65;;;;;;;;;;4994782;28;20085;-68
2022/01/01 08:38:59;;;;;;;54.35;24.55;;;12.10;99.90;;;;;;4959917;28;20054;-69
2022/01/01 08:41:25;;;;;;;62.20;25.80;;;12.00;99.90;;;;;;4993234;28;20049;-67
2022/01/01 08:43:52;;;;;;;54.58;25.77;;;12.00;99.90;;;;;;4992992;28;20492;-66
2022/01/01 08:46:18;;;;;;;51.80;24.52;;;12.30;99.90;;;;;;4991613;28;20066;-67
2022/01/01 08:48:44;;;;;;;49.35;23.65;;;;;;;;;;4977964;28;20411;-68
2022/01/01 08:51:17;;;;;;;48.60;23.27;;;12.30;99.90;;;;;;4991853;28;20050;-67
2022/01/01 08:53:43;;;;;;;54.28;23.08;;;;;;;;;;4984841;28;20046;-67
2022/01/01 08:56:10;;;;;;;58.20;24.67;;;12.20;99.90;;;;;;4982288;28;20040;-67
2022/01/01 08:58:36;;;;;;;53.80;23.45;;;;;;;;;;4984508;28;20042;-68
2022/01/01 09:01:03;;;;;;;50.92;23.58;;;12.30;99.90;;;;;;4971391;28;20038;-67
2022/01/01 09:03:29;;;;;;;49.10;23.05;;;12.40;99.90;;;;;;4961890;28;20126;-69
2022/01/01 09:05:55;;;;;;;44.15;22.38;;;;;;;;;;4984884;28;20038;-69
2022/01/01 09:08:21;;;;;;;46.33;20.83;;;12.50;99.90;;;;;;4992301;28;20152;-70
2022/01/01 09:10:47;;;;;;;42.45;19.05;;;12.50;99.90;;;;;;4992225;28;20492;-69
2022/01/01 09:13:13;;;;;;;43.63;21.75;;;;;;;;;;4975487;28;20400;-70
2022/01/01 09:15:38;;;;;;;46.72;18.75;;;12.60;99.90;;;;;;4993549;28;20058;-67
2022/01/01 09:18:04;;;;;;;41.67;17.63;;;12.50;99.90;;;;;;4993753;28;20035;-67
2022/01/01 09:20:30;;;;;;;44.10;18.52;;;12.80;99.90;;;;;;4993241;28;20396;-67
2022/01/01 09:22:56;;;;;;;43.85;19.30;;;;;;;;;;4993496;28;20130;-66
2022/01/01 09:25:21;;;;;;;39.10;19.00;;;12.60;99.90;;;;;;4979408;28;20058;-66
2022/01/01 09:27:47;;;;;;;43.55;18.38;;;12.60;99.90;;;;;;4954518;28;20042;-66
2022/01/01 09:30:12;;;;;;;39.55;17.85;;;12.50;99.90;;;;;;4971848;28;20090;-66
2022/01/01 09:32:38;;;;;;;37.45;17.63;;;12.60;99.90;;;;;;4976089;28;20512;-66
2022/01/01 09:35:05;;;;;;;33.58;17.63;;;12.50;99.90;;;;;;4975464;28;20506;-65
2022/01/01 09:37:32;;;;;;;32.47;16.20;;;12.60;99.90;;;;;;4976409;28;20034;-66
2022/01/01 09:39:59;;;;;;;40.15;17.13;;;12.60;99.90;;;;;;4989589;28;20431;-67
2022/01/01 09:42:24;;;;;;;36.65;17.25;;;12.50;99.90;;;;;;4988827;28;20066;-66
2022/01/01 09:44:52;;;;;;;36.08;16.50;;;12.50;99.90;;;;;;4972007;28;20065;-68
2022/01/01 09:47:18;;;;;;;32.15;17.10;;;;;;;;;;4951441;28;20074;-68
2022/01/01 09:49:51;;;;;;;33.10;14.73;;;;;;;;;;5069271;27;20900;-69
2022/01/01 09:52:17;;;;;;;33.45;14.27;;;12.80;99.90;;;;;;5059627;28;20048;-69
2022/01/01 09:54:43;;;;;;;33.00;14.60;;;;;;;;;;5079213;28;20090;-68
2022/01/01 09:57:10;;;;;;;31.10;13.40;;;12.90;99.90;;;;;;5061473;28;20044;-70
2022/01/01 09:59:38;;;;;;;27.67;14.43;;;12.90;99.90;;;;;;5050195;28;20044;-70
2022/01/01 10:02:04;;;;;;;27.45;13.15;;;;;;;;;;5047673;28;20064;-71
2022/01/01 10:04:41;;;;;;;25.40;13.05;;;12.80;99.90;;;;;;5052905;28;20048;-72
2022/01/01 10:07:07;;;;;;;33.05;14.20;;;12.80;99.90;;;;;;5061151;28;20144;-69
2022/01/01 10:09:34;;;;;;;31.50;13.25;;;12.60;99.90;;;;;;5063481;28;20116;-69
2022/01/01 10:12:00;;;;;;;26.25;12.90;;;12.70;99.90;;;;;;5052723;28;20049;-70
2022/01/01 10:14:40;;;;;;;27.88;12.02;;;12.70;99.90;;;;;;5050785;28;20487;-69
2022/01/01 10:17:23;;;;;;;29.42;13.27;;;12.80;99.90;;;;;;5052815;28;20052;-69
2022/01/01 10:19:53;;;;;;;27.05;13.05;;;12.70;99.90;;;;;;5048828;28;20052;-68
2022/01/01 10:22:24;;;;;;;26.80;11.57;;;12.70;99.90;;;;;;5066513;28;20524;-68
2022/01/01 10:27:56;;;;;;;21.58;10.88;;;12.90;99.90;;;;;;5065795;28;20053;-68
2022/01/01 10:30:34;;;;;;;22.98;11.23;;;12.50;99.90;;;;;;5060601;28;20088;-70
2022/01/01 10:33:18;;;;;;;25.92;11.23;;;12.60;99.90;;;;;;5063861;28;20095;-69
2022/01/01 10:35:50;;;;;;;22.50;10.98;;;12.70;99.90;;;;;;5060735;28;20044;-68
2022/01/01 10:38:22;;;;;;;23.77;10.73;;;12.70;99.90;;;;;;5061204;28;20425;-68
2022/01/01 10:40:52;;;;;;;27.23;10.63;;;12.80;99.90;;;;;;5063334;28;20123;-70
2022/01/01 10:43:20;;;;;;;24.50;9.63;;;12.80;99.90;;;;;;5055801;28;20116;-71
2022/01/01 10:45:47;;;;;;;19.90;9.63;;;12.90;99.90;;;;;;5055590;28;20102;-69
2022/01/01 10:48:17;;;;;;;22.38;10.15;;;12.90;99.90;;;;;;5057064;28;20052;-70
2022/01/01 10:50:46;;;;;;;22.23;10.10;;;12.80;99.90;;;;;;5056973;28;20102;-72
2022/01/01 10:53:14;;;;;;;20.20;9.00;;;12.80;99.90;;;;;;5054001;28;20028;-69
2022/01/01 10:55:44;;;;;;;22.52;8.77;;;12.80;99.90;;;;;;5057523;28;20553;-68
2022/01/01 10:58:16;;;;;;;18.30;8.65;;;13.00;99.90;;;;;;5051178;28;20076;-70
2022/01/01 11:00:42;;;;;;;14.50;8.48;;;12.90;99.90;;;;;;5032101;28;20057;-71
2022/01/01 11:03:09;;;;;;;23.60;9.90;;;12.80;99.90;;;;;;5037705;28;20504;-69
2022/01/01 11:05:37;;;;;;;21.60;8.50;;;12.90;99.90;;;;;;5063647;28;20095;-69
2022/01/01 11:08:07;;;;;;;19.63;8.07;;;12.90;99.90;;;;;;5037042;28;20454;-69
2022/01/01 11:10:33;;;;;;;17.75;7.47;;;13.00;99.90;;;;;;5035766;28;20068;-67
2022/01/01 11:13:00;;;;;;;15.63;7.80;;;12.90;99.90;;;;;;5037910;28;20483;-71
2022/01/01 11:15:26;;;;;;;17.67;8.07;;;12.90;99.90;;;;;;5045125;28;20049;-70
2022/01/01 11:17:52;;;;;;;25.92;7.90;;;12.90;99.90;;;;;;5042346;28;20080;-70
2022/01/01 11:20:19;;;;;;;15.30;8.02;;;12.90;99.90;;;;;;5047137;28;20073;-71
2022/01/01 11:22:45;;;;;;;17.05;7.43;;;12.90;99.90;;;;;;5050030;28;20053;-72
2022/01/01 11:25:11;;;;;;;16.70;7.50;;;13.00;99.90;;;;;;5041173;28;20041;-70
2022/01/01 11:27:37;;;;;;;16.98;6.95;;;12.90;99.90;;;;;;5040162;28;20540;-68
2022/01/01 11:30:07;;;;;;;20.85;7.97;;;13.10;99.90;;;;;;5041358;28;20054;-66
2022/01/01 11:32:51;;;;;;;15.23;7.20;;;13.00;99.90;;;;;;5045477;28;20057;-68
2022/01/01 11:35:30;;;;;;;16.48;7.90;;;13.10;99.90;;;;;;5024153;28;20383;-65
2022/01/01 11:37:58;;;;;;;21.90;7.82;;;13.10;99.90;;;;;;5050051;28;20106;-67
2022/01/01 11:40:24;;;;;;;17.65;7.70;;;13.20;99.90;;;;;;5050101;28;20348;-66
2022/01/01 11:42:50;;;;;;;12.38;6.55;;;13.20;99.90;;;;;;5049530;28;20044;-66
2022/01/01 11:45:45;;;;;;;17.90;7.03;;;13.30;99.90;;;;;;5051304;28;20033;-66
2022/01/01 11:48:28;;;;;;;14.38;6.63;;;13.40;99.90;;;;;;5043250;28;20056;-65
2022/01/01 11:50:54;;;;;;;11.13;6.35;;;13.30;99.90;;;;;;5049207;28;20042;-65
2022/01/01 11:53:29;;;;;;;11.50;5.95;;;13.50;99.90;;;;;;5052170;28;20045;-66
2022/01/01 11:56:12;;;;;;;16.05;6.00;;;13.40;99.90;;;;;;5036455;28;20057;-66
2022/01/01 11:58:51;;;;;;;13.93;6.03;;;13.40;99.90;;;;;;5035487;28;20443;-70
2022/01/01 12:01:18;;;;;;;12.50;5.90;;;13.30;99.90;;;;;;5024851;28;20134;-70
2022/01/01 12:03:52;;;;;;;17.25;6.00;;;13.40;99.90;;;;;;5041427;28;20094;-65
2022/01/01 12:06:19;;;;;;;15.27;6.97;;;13.30;99.90;;;;;;5053042;28;20044;-67
2022/01/01 12:08:48;;;;;;;18.30;6.93;;;13.30;99.90;;;;;;5045581;28;20044;-68
2022/01/01 12:11:30;;;;;;;13.20;5.57;;;13.30;99.90;;;;;;5048319;28;20183;-69
2022/01/01 12:14:01;;;;;;;13.18;5.40;;;13.30;99.90;;;;;;5046453;28;20107;-71
2022/01/01 12:16:29;;;;;;;17.88;6.45;;;;;;;;;;5047797;28;20495;-71
2022/01/01 12:19:03;;;;;;;17.65;6.13;;;13.30;99.90;;;;;;5041999;28;20045;-65
2022/01/01 12:21:40;;;;;;;16.27;5.82;;;13.30;99.90;;;;;;5028526;28;20091;-65
2022/01/01 12:24:11;;;;;;;12.63;5.30;;;13.40;99.90;;;;;;5025229;28;20041;-67
2022/01/01 12:26:36;;;;;;;22.55;6.53;;;13.30;99.90;;;;;;5047649;28;20041;-66
2022/01/01 12:29:09;;;;;;;13.70;5.68;;;13.30;99.90;;;;;;5036709;28;20441;-67
2022/01/01 12:31:34;;;;;;;12.32;6.20;;;13.30;99.90;;;;;;5046757;28;20104;-66
2022/01/01 12:34:10;;;;;;;14.20;6.20;;;13.20;99.90;;;;;;5036686;28;20195;-67
2022/01/01 12:36:41;;;;;;;16.50;6.30;;;13.20;99.90;;;;;;5048446;28;20041;-67
2022/01/01 12:39:09;;;;;;;12.73;6.63;;;13.20;99.90;;;;;;5050538;28;20045;-67
2022/01/01 12:41:41;;;;;;;11.88;5.10;;;13.20;99.90;;;;;;5051109;28;20110;-68
2022/01/01 12:44:08;;;;;;;13.32;5.72;;;13.30;99.90;;;;;;5052173;28;20032;-68
2022/01/01 12:46:43;;;;;;;13.23;6.15;;;13.30;99.90;;;;;;5049525;28;20044;-68